MXY9455 KPWM-KPVD
Flight info
| Callsign | MXY9455 |
|---|---|
| Flight time | N/A |
| Altitude | 16000 |
| Route | NUBLE4 JJIMY |
| Aircraft | E190/M-SDE3GILORVW/S |
Departure
| Time | 2026-05-07 21:45 |
|---|---|
| Airport | Portland International Jetport (KPWM) |
Arrival
| Time | N/A |
|---|---|
| Airport | Rhode Island T. F. Green International Airport (KPVD) |
| Time | Latitude | Longitude | Altitude | Speed | Heading |
|---|---|---|---|---|---|
| 2026-05-07 21:27 | 43.64679 | -70.31126 | 57 ft | 0 kts | 6° |
| 2026-05-07 21:37 | 43.64675 | -70.31127 | 53 ft | 2 kts | 6° |
| 2026-05-07 21:37 | 43.64655 | -70.31131 | 56 ft | 3 kts | 12° |
| 2026-05-07 21:37 | 43.64636 | -70.31137 | 59 ft | 3 kts | 19° |
| 2026-05-07 21:37 | 43.64617 | -70.31148 | 54 ft | 3 kts | 35° |
| 2026-05-07 21:38 | 43.64604 | -70.31165 | 55 ft | 3 kts | 71° |
| 2026-05-07 21:38 | 43.64601 | -70.31177 | 57 ft | 0 kts | 95° |
| 2026-05-07 21:41 | 43.64601 | -70.31170 | 57 ft | 2 kts | 95° |
| 2026-05-07 21:41 | 43.64596 | -70.31105 | 59 ft | 11 kts | 95° |
| 2026-05-07 21:42 | 43.64587 | -70.30980 | 54 ft | 14 kts | 95° |
| 2026-05-07 21:42 | 43.64577 | -70.30829 | 54 ft | 18 kts | 95° |
| 2026-05-07 21:42 | 43.64565 | -70.30651 | 57 ft | 19 kts | 95° |
| 2026-05-07 21:42 | 43.64556 | -70.30527 | 57 ft | 20 kts | 94° |
| 2026-05-07 21:43 | 43.64538 | -70.30247 | 53 ft | 23 kts | 95° |
| 2026-05-07 21:43 | 43.64523 | -70.30018 | 52 ft | 25 kts | 94° |
| 2026-05-07 21:43 | 43.64497 | -70.29924 | 50 ft | 0 kts | 149° |
| 2026-05-07 21:44 | 43.64480 | -70.29917 | 47 ft | 7 kts | 168° |
| 2026-05-07 21:44 | 43.64434 | -70.29919 | 49 ft | 12 kts | 194° |
| 2026-05-07 21:44 | 43.64412 | -70.30020 | 48 ft | 12 kts | 277° |
| 2026-05-07 21:45 | 43.64431 | -70.30283 | 52 ft | 60 kts | 275° |
| 2026-05-07 21:45 | 43.64524 | -70.31641 | 101 ft | 145 kts | 275° |
| 2026-05-07 21:45 | 43.64620 | -70.33149 | 697 ft | 170 kts | 274° |
| 2026-05-07 21:45 | 43.64739 | -70.34989 | 1145 ft | 213 kts | 277° |
| 2026-05-07 21:46 | 43.64841 | -70.36386 | 1832 ft | 222 kts | 277° |
| 2026-05-07 21:46 | 43.64999 | -70.38577 | 2113 ft | 224 kts | 277° |
| 2026-05-07 21:46 | 43.65160 | -70.40670 | 3125 ft | 213 kts | 277° |
| 2026-05-07 21:46 | 43.65311 | -70.42662 | 4021 ft | 206 kts | 277° |
| 2026-05-07 21:47 | 43.65461 | -70.44627 | 4719 ft | 205 kts | 277° |
| 2026-05-07 21:47 | 43.65607 | -70.46566 | 5304 ft | 206 kts | 277° |
| 2026-05-07 21:47 | 43.65395 | -70.48522 | 5781 ft | 216 kts | 244° |
| 2026-05-07 21:47 | 43.64226 | -70.49914 | 6181 ft | 241 kts | 207° |
| 2026-05-07 21:48 | 43.62474 | -70.50301 | 6479 ft | 263 kts | 186° |
| 2026-05-07 21:48 | 43.60664 | -70.50720 | 6969 ft | 264 kts | 207° |
| 2026-05-07 21:48 | 43.59059 | -70.51933 | 7546 ft | 264 kts | 216° |
| 2026-05-07 21:48 | 43.57444 | -70.53211 | 8114 ft | 270 kts | 216° |
| 2026-05-07 21:49 | 43.55819 | -70.54530 | 8758 ft | 273 kts | 217° |
| 2026-05-07 21:49 | 43.54180 | -70.55876 | 9425 ft | 276 kts | 217° |
| 2026-05-07 21:49 | 43.52482 | -70.57147 | 10094 ft | 282 kts | 209° |
| 2026-05-07 21:49 | 43.50557 | -70.58017 | 10422 ft | 301 kts | 201° |
| 2026-05-07 21:50 | 43.48488 | -70.58783 | 10849 ft | 312 kts | 203° |
| 2026-05-07 21:50 | 43.46365 | -70.59636 | 11328 ft | 323 kts | 203° |
| 2026-05-07 21:50 | 43.44191 | -70.60506 | 11958 ft | 328 kts | 203° |
| 2026-05-07 21:50 | 43.41997 | -70.61387 | 12766 ft | 328 kts | 204° |
| 2026-05-07 21:51 | 43.39812 | -70.62271 | 13669 ft | 327 kts | 204° |
| 2026-05-07 21:51 | 43.37642 | -70.63148 | 14541 ft | 325 kts | 204° |
| 2026-05-07 21:51 | 43.35477 | -70.64023 | 15428 ft | 323 kts | 204° |
| 2026-05-07 21:51 | 43.33306 | -70.64909 | 15980 ft | 328 kts | 204° |
| 2026-05-07 21:52 | 43.31125 | -70.65791 | 16043 ft | 334 kts | 204° |
| 2026-05-07 21:52 | 43.28887 | -70.66701 | 16044 ft | 335 kts | 204° |
| 2026-05-07 21:52 | 43.26647 | -70.67604 | 16041 ft | 336 kts | 204° |
| 2026-05-07 21:52 | 43.24408 | -70.68509 | 16040 ft | 336 kts | 204° |
| 2026-05-07 21:53 | 43.22168 | -70.69415 | 16046 ft | 336 kts | 204° |
| 2026-05-07 21:53 | 43.19920 | -70.70311 | 16034 ft | 337 kts | 204° |
| 2026-05-07 21:53 | 43.17674 | -70.71223 | 16040 ft | 337 kts | 204° |
| 2026-05-07 21:53 | 43.15562 | -70.72387 | 16043 ft | 329 kts | 213° |
| 2026-05-07 21:54 | 43.13536 | -70.73838 | 16049 ft | 329 kts | 214° |
| 2026-05-07 21:54 | 43.11507 | -70.75290 | 16056 ft | 329 kts | 214° |
| 2026-05-07 21:54 | 43.09491 | -70.76737 | 16054 ft | 329 kts | 214° |
| 2026-05-07 21:54 | 43.07449 | -70.78201 | 16027 ft | 329 kts | 214° |
| 2026-05-07 21:55 | 43.05394 | -70.79674 | 16006 ft | 329 kts | 214° |
| 2026-05-07 21:55 | 43.03368 | -70.81128 | 16007 ft | 329 kts | 214° |
| 2026-05-07 21:55 | 43.01369 | -70.82562 | 16011 ft | 329 kts | 214° |
| 2026-05-07 21:55 | 42.99318 | -70.84032 | 16013 ft | 329 kts | 214° |
| 2026-05-07 21:56 | 42.97316 | -70.85466 | 16021 ft | 329 kts | 214° |
| 2026-05-07 21:56 | 42.95289 | -70.86919 | 16019 ft | 329 kts | 214° |
| 2026-05-07 21:56 | 42.93260 | -70.88371 | 16031 ft | 329 kts | 214° |
| 2026-05-07 21:56 | 42.91228 | -70.89824 | 16026 ft | 329 kts | 214° |
| 2026-05-07 21:57 | 42.89197 | -70.91276 | 16028 ft | 329 kts | 214° |
| 2026-05-07 21:57 | 42.87169 | -70.92723 | 16051 ft | 329 kts | 214° |
| 2026-05-07 21:57 | 42.85137 | -70.94173 | 16048 ft | 330 kts | 214° |
| 2026-05-07 21:57 | 42.83076 | -70.95557 | 16049 ft | 333 kts | 208° |
| 2026-05-07 21:58 | 42.80897 | -70.96659 | 16028 ft | 335 kts | 206° |
| 2026-05-07 21:58 | 42.78708 | -70.97724 | 16030 ft | 335 kts | 207° |
| 2026-05-07 21:58 | 42.76520 | -70.98794 | 16038 ft | 334 kts | 207° |
| 2026-05-07 21:58 | 42.74333 | -70.99861 | 16036 ft | 334 kts | 207° |
| 2026-05-07 21:59 | 42.72148 | -71.00926 | 16040 ft | 334 kts | 207° |
| 2026-05-07 21:59 | 42.69963 | -71.01989 | 16042 ft | 334 kts | 207° |
| 2026-05-07 21:59 | 42.67786 | -71.03050 | 16043 ft | 334 kts | 207° |
| 2026-05-07 21:59 | 42.65592 | -71.04116 | 16046 ft | 334 kts | 207° |
| 2026-05-07 22:00 | 42.63405 | -71.05178 | 16045 ft | 333 kts | 207° |
| 2026-05-07 22:00 | 42.61255 | -71.06219 | 16023 ft | 333 kts | 207° |
| 2026-05-07 22:00 | 42.59047 | -71.07293 | 16022 ft | 333 kts | 207° |
| 2026-05-07 22:00 | 42.56898 | -71.08333 | 16027 ft | 333 kts | 207° |
| 2026-05-07 22:01 | 42.54719 | -71.09390 | 16029 ft | 333 kts | 207° |
| 2026-05-07 22:01 | 42.52536 | -71.10445 | 16030 ft | 332 kts | 207° |
| 2026-05-07 22:01 | 42.50357 | -71.11499 | 16045 ft | 332 kts | 207° |
| 2026-05-07 22:01 | 42.48177 | -71.12552 | 16043 ft | 333 kts | 207° |
| 2026-05-07 22:02 | 42.46002 | -71.13601 | 16041 ft | 333 kts | 207° |